sensor_id;sensor_type;location;lat;lon;timestamp;temperature;humidity
25112;DHT22;13092;51.996;4.458;2022-09-20T00:01:30;13.30;99.90
25112;DHT22;13092;51.996;4.458;2022-09-20T00:04:01;13.40;99.90
25112;DHT22;13092;51.996;4.458;2022-09-20T00:06:31;13.40;99.90
25112;DHT22;13092;51.996;4.458;2022-09-20T00:09:00;13.40;99.90
25112;DHT22;13092;51.996;4.458;2022-09-20T00:11:31;13.40;99.90
25112;DHT22;13092;51.996;4.458;2022-09-20T00:14:02;13.30;99.90
25112;DHT22;13092;51.996;4.458;2022-09-20T00:16:33;13.40;99.90
25112;DHT22;13092;51.996;4.458;2022-09-20T00:19:02;13.40;99.90
25112;DHT22;13092;51.996;4.458;2022-09-20T00:21:32;13.40;99.90
25112;DHT22;13092;51.996;4.458;2022-09-20T00:24:02;13.40;99.90
25112;DHT22;13092;51.996;4.458;2022-09-20T00:26:30;13.40;99.90
25112;DHT22;13092;51.996;4.458;2022-09-20T00:29:00;13.30;99.90
25112;DHT22;13092;51.996;4.458;2022-09-20T00:31:28;13.30;99.90
25112;DHT22;13092;51.996;4.458;2022-09-20T00:33:57;13.20;99.90
25112;DHT22;13092;51.996;4.458;2022-09-20T00:36:43;13.30;99.90
25112;DHT22;13092;51.996;4.458;2022-09-20T00:39:14;13.40;99.90
25112;DHT22;13092;51.996;4.458;2022-09-20T00:41:43;13.40;99.90
25112;DHT22;13092;51.996;4.458;2022-09-20T00:44:44;13.50;99.90
25112;DHT22;13092;51.996;4.458;2022-09-20T00:47:21;13.50;99.90
25112;DHT22;13092;51.996;4.458;2022-09-20T00:49:56;13.50;99.90
25112;DHT22;13092;51.996;4.458;2022-09-20T00:52:26;13.50;99.90
25112;DHT22;13092;51.996;4.458;2022-09-20T00:54:56;13.50;99.90
25112;DHT22;13092;51.996;4.458;2022-09-20T00:57:25;13.60;99.90
25112;DHT22;13092;51.996;4.458;2022-09-20T00:59:56;13.70;99.90
25112;DHT22;13092;51.996;4.458;2022-09-20T01:02:27;13.70;99.90
25112;DHT22;13092;51.996;4.458;2022-09-20T01:04:57;13.60;99.90
25112;DHT22;13092;51.996;4.458;2022-09-20T01:07:26;13.70;99.90
25112;DHT22;13092;51.996;4.458;2022-09-20T01:09:56;13.70;99.90
25112;DHT22;13092;51.996;4.458;2022-09-20T01:12:28;13.80;99.90
25112;DHT22;13092;51.996;4.458;2022-09-20T01:15:00;13.80;99.90
25112;DHT22;13092;51.996;4.458;2022-09-20T01:17:31;13.80;99.90
25112;DHT22;13092;51.996;4.458;2022-09-20T01:20:10;13.70;99.90
25112;DHT22;13092;51.996;4.458;2022-09-20T01:23:09;13.70;99.90
25112;DHT22;13092;51.996;4.458;2022-09-20T01:26:12;13.70;99.90
25112;DHT22;13092;51.996;4.458;2022-09-20T01:28:48;13.70;99.90
25112;DHT22;13092;51.996;4.458;2022-09-20T01:31:23;13.60;99.90
25112;DHT22;13092;51.996;4.458;2022-09-20T01:33:56;13.60;99.90
25112;DHT22;13092;51.996;4.458;2022-09-20T01:36:36;13.50;99.90
25112;DHT22;13092;51.996;4.458;2022-09-20T01:39:10;13.50;99.90
25112;DHT22;13092;51.996;4.458;2022-09-20T01:41:46;13.40;99.90
25112;DHT22;13092;51.996;4.458;2022-09-20T01:44:23;13.50;99.90
25112;DHT22;13092;51.996;4.458;2022-09-20T01:46:57;13.30;99.90
25112;DHT22;13092;51.996;4.458;2022-09-20T01:49:33;13.20;99.90
25112;DHT22;13092;51.996;4.458;2022-09-20T01:58:29;13.10;99.90
25112;DHT22;13092;51.996;4.458;2022-09-20T02:04:14;13.20;99.90
25112;DHT22;13092;51.996;4.458;2022-09-20T02:07:01;13.10;99.90
25112;DHT22;13092;51.996;4.458;2022-09-20T02:09:59;13.10;99.90
25112;DHT22;13092;51.996;4.458;2022-09-20T02:12:47;13.20;99.90
25112;DHT22;13092;51.996;4.458;2022-09-20T02:15:39;13.20;99.90
25112;DHT22;13092;51.996;4.458;2022-09-20T02:18:32;13.20;99.90
25112;DHT22;13092;51.996;4.458;2022-09-20T02:21:07;13.10;99.90
25112;DHT22;13092;51.996;4.458;2022-09-20T02:23:43;13.20;99.90
25112;DHT22;13092;51.996;4.458;2022-09-20T02:26:35;13.20;99.90
25112;DHT22;13092;51.996;4.458;2022-09-20T02:29:15;13.20;99.90
25112;DHT22;13092;51.996;4.458;2022-09-20T02:32:02;13.20;99.90
25112;DHT22;13092;51.996;4.458;2022-09-20T02:34:50;13.00;99.90
25112;DHT22;13092;51.996;4.458;2022-09-20T02:37:43;13.10;99.90
25112;DHT22;13092;51.996;4.458;2022-09-20T02:40:22;13.10;99.90
25112;DHT22;13092;51.996;4.458;2022-09-20T02:43:00;13.10;99.90
25112;DHT22;13092;51.996;4.458;2022-09-20T02:45:35;13.00;99.90
25112;DHT22;13092;51.996;4.458;2022-09-20T02:48:07;12.90;99.90
25112;DHT22;13092;51.996;4.458;2022-09-20T02:50:43;12.90;99.90
25112;DHT22;13092;51.996;4.458;2022-09-20T02:53:25;12.80;99.90
25112;DHT22;13092;51.996;4.458;2022-09-20T02:56:02;12.80;99.90
25112;DHT22;13092;51.996;4.458;2022-09-20T02:58:41;12.80;99.90
25112;DHT22;13092;51.996;4.458;2022-09-20T03:01:22;12.80;99.90
25112;DHT22;13092;51.996;4.458;2022-09-20T03:04:01;12.80;99.90
25112;DHT22;13092;51.996;4.458;2022-09-20T03:06:40;12.70;99.90
25112;DHT22;13092;51.996;4.458;2022-09-20T03:09:12;12.60;99.90
25112;DHT22;13092;51.996;4.458;2022-09-20T03:11:51;12.60;99.90
25112;DHT22;13092;51.996;4.458;2022-09-20T03:14:28;12.60;99.90
25112;DHT22;13092;51.996;4.458;2022-09-20T03:17:04;12.70;99.90
25112;DHT22;13092;51.996;4.458;2022-09-20T03:19:45;12.70;99.90
25112;DHT22;13092;51.996;4.458;2022-09-20T03:22:27;12.60;99.90
25112;DHT22;13092;51.996;4.458;2022-09-20T03:25:13;12.70;99.90
25112;DHT22;13092;51.996;4.458;2022-09-20T03:27:53;12.70;99.90
25112;DHT22;13092;51.996;4.458;2022-09-20T03:30:33;12.90;99.90
25112;DHT22;13092;51.996;4.458;2022-09-20T03:33:09;12.80;99.90
25112;DHT22;13092;51.996;4.458;2022-09-20T03:35:52;12.90;99.90
25112;DHT22;13092;51.996;4.458;2022-09-20T03:38:37;13.00;99.90
25112;DHT22;13092;51.996;4.458;2022-09-20T03:44:26;13.00;99.90
25112;DHT22;13092;51.996;4.458;2022-09-20T03:47:06;13.00;99.90
25112;DHT22;13092;51.996;4.458;2022-09-20T03:49:59;13.00;99.90
25112;DHT22;13092;51.996;4.458;2022-09-20T03:56:07;13.00;99.90
25112;DHT22;13092;51.996;4.458;2022-09-20T03:58:50;13.00;99.90
25112;DHT22;13092;51.996;4.458;2022-09-20T04:01:37;12.90;99.90
25112;DHT22;13092;51.996;4.458;2022-09-20T04:04:15;12.80;99.90
25112;DHT22;13092;51.996;4.458;2022-09-20T04:07:08;12.80;99.90
25112;DHT22;13092;51.996;4.458;2022-09-20T04:09:50;12.70;99.90
25112;DHT22;13092;51.996;4.458;2022-09-20T04:12:29;12.60;99.90
25112;DHT22;13092;51.996;4.458;2022-09-20T04:15:13;12.60;99.90
25112;DHT22;13092;51.996;4.458;2022-09-20T04:17:48;12.60;99.90
25112;DHT22;13092;51.996;4.458;2022-09-20T04:20:22;12.60;99.90
25112;DHT22;13092;51.996;4.458;2022-09-20T04:22:57;12.70;99.90
25112;DHT22;13092;51.996;4.458;2022-09-20T04:25:31;12.80;99.90
25112;DHT22;13092;51.996;4.458;2022-09-20T04:28:07;12.80;99.90
25112;DHT22;13092;51.996;4.458;2022-09-20T04:30:39;12.90;99.90
25112;DHT22;13092;51.996;4.458;2022-09-20T04:33:17;12.90;99.90
25112;DHT22;13092;51.996;4.458;2022-09-20T04:35:54;13.00;99.90
25112;DHT22;13092;51.996;4.458;2022-09-20T04:38:49;13.10;99.90
25112;DHT22;13092;51.996;4.458;2022-09-20T04:41:34;13.10;99.90
25112;DHT22;13092;51.996;4.458;2022-09-20T04:47:42;13.20;99.90
25112;DHT22;13092;51.996;4.458;2022-09-20T04:50:40;13.30;99.90
25112;DHT22;13092;51.996;4.458;2022-09-20T04:53:40;13.10;99.90
25112;DHT22;13092;51.996;4.458;2022-09-20T04:56:19;13.20;99.90
25112;DHT22;13092;51.996;4.458;2022-09-20T04:59:04;13.20;99.90
25112;DHT22;13092;51.996;4.458;2022-09-20T05:02:12;13.30;99.90
25112;DHT22;13092;51.996;4.458;2022-09-20T05:05:10;13.20;99.90
25112;DHT22;13092;51.996;4.458;2022-09-20T05:08:05;13.30;99.90
25112;DHT22;13092;51.996;4.458;2022-09-20T05:14:03;13.40;99.90
25112;DHT22;13092;51.996;4.458;2022-09-20T05:16:49;13.50;99.90
25112;DHT22;13092;51.996;4.458;2022-09-20T05:19:31;13.60;99.90
25112;DHT22;13092;51.996;4.458;2022-09-20T05:25:25;13.60;99.90
25112;DHT22;13092;51.996;4.458;2022-09-20T05:28:05;13.50;99.90
25112;DHT22;13092;51.996;4.458;2022-09-20T05:30:38;13.70;99.90
25112;DHT22;13092;51.996;4.458;2022-09-20T05:33:18;13.70;99.90
25112;DHT22;13092;51.996;4.458;2022-09-20T05:35:59;13.70;99.90
25112;DHT22;13092;51.996;4.458;2022-09-20T05:38:35;13.80;99.90
25112;DHT22;13092;51.996;4.458;2022-09-20T05:41:12;13.90;99.90
25112;DHT22;13092;51.996;4.458;2022-09-20T05:43:52;13.70;99.90
25112;DHT22;13092;51.996;4.458;2022-09-20T05:46:34;13.80;99.90
25112;DHT22;13092;51.996;4.458;2022-09-20T05:49:11;13.80;99.90
25112;DHT22;13092;51.996;4.458;2022-09-20T05:52:05;13.90;99.90
25112;DHT22;13092;51.996;4.458;2022-09-20T05:54:56;13.90;99.90
25112;DHT22;13092;51.996;4.458;2022-09-20T05:57:34;14.00;99.90
25112;DHT22;13092;51.996;4.458;2022-09-20T06:00:08;14.00;99.90
25112;DHT22;13092;51.996;4.458;2022-09-20T06:02:42;14.00;99.90
25112;DHT22;13092;51.996;4.458;2022-09-20T06:05:15;14.00;99.90
25112;DHT22;13092;51.996;4.458;2022-09-20T06:11:17;14.10;99.90
25112;DHT22;13092;51.996;4.458;2022-09-20T06:14:00;14.10;99.90
25112;DHT22;13092;51.996;4.458;2022-09-20T06:16:36;14.10;99.90
25112;DHT22;13092;51.996;4.458;2022-09-20T06:19:15;14.20;99.90
25112;DHT22;13092;51.996;4.458;2022-09-20T06:21:50;14.20;99.90
25112;DHT22;13092;51.996;4.458;2022-09-20T06:24:28;14.30;99.90
25112;DHT22;13092;51.996;4.458;2022-09-20T06:27:00;14.30;99.90
25112;DHT22;13092;51.996;4.458;2022-09-20T06:29:33;14.30;99.90
25112;DHT22;13092;51.996;4.458;2022-09-20T06:32:02;14.30;99.90
25112;DHT22;13092;51.996;4.458;2022-09-20T06:34:31;14.40;99.90
25112;DHT22;13092;51.996;4.458;2022-09-20T06:37:09;14.30;99.90
25112;DHT22;13092;51.996;4.458;2022-09-20T06:40:05;14.40;99.90
25112;DHT22;13092;51.996;4.458;2022-09-20T06:42:55;14.60;99.90
25112;DHT22;13092;51.996;4.458;2022-09-20T06:45:25;14.40;99.90
25112;DHT22;13092;51.996;4.458;2022-09-20T06:47:54;14.50;99.90
25112;DHT22;13092;51.996;4.458;2022-09-20T06:50:23;14.40;99.90
25112;DHT22;13092;51.996;4.458;2022-09-20T06:52:51;14.50;99.90
25112;DHT22;13092;51.996;4.458;2022-09-20T06:55:25;14.70;99.90
25112;DHT22;13092;51.996;4.458;2022-09-20T06:57:55;14.60;99.90
25112;DHT22;13092;51.996;4.458;2022-09-20T07:00:23;14.70;99.90
25112;DHT22;13092;51.996;4.458;2022-09-20T07:02:51;14.70;99.90
25112;DHT22;13092;51.996;4.458;2022-09-20T07:05:19;14.70;99.90
25112;DHT22;13092;51.996;4.458;2022-09-20T07:07:48;14.70;99.90
25112;DHT22;13092;51.996;4.458;2022-09-20T07:10:16;14.70;99.90
25112;DHT22;13092;51.996;4.458;2022-09-20T07:12:45;14.70;99.90
25112;DHT22;13092;51.996;4.458;2022-09-20T07:15:14;14.70;99.90
25112;DHT22;13092;51.996;4.458;2022-09-20T07:17:43;14.70;99.90
25112;DHT22;13092;51.996;4.458;2022-09-20T07:20:11;14.80;99.90
25112;DHT22;13092;51.996;4.458;2022-09-20T07:22:44;14.80;99.90
25112;DHT22;13092;51.996;4.458;2022-09-20T07:25:12;14.80;99.90
25112;DHT22;13092;51.996;4.458;2022-09-20T07:27:40;14.80;99.90
25112;DHT22;13092;51.996;4.458;2022-09-20T07:30:11;14.90;99.90
25112;DHT22;13092;51.996;4.458;2022-09-20T07:32:40;14.80;99.90
25112;DHT22;13092;51.996;4.458;2022-09-20T07:35:09;14.80;99.90
25112;DHT22;13092;51.996;4.458;2022-09-20T07:37:37;14.90;99.90
25112;DHT22;13092;51.996;4.458;2022-09-20T07:40:08;14.90;99.90
25112;DHT22;13092;51.996;4.458;2022-09-20T07:42:37;15.00;99.90
25112;DHT22;13092;51.996;4.458;2022-09-20T07:45:06;15.00;99.90
25112;DHT22;13092;51.996;4.458;2022-09-20T07:47:36;15.00;99.90
25112;DHT22;13092;51.996;4.458;2022-09-20T07:50:07;15.20;99.90
25112;DHT22;13092;51.996;4.458;2022-09-20T07:52:36;15.10;99.90
25112;DHT22;13092;51.996;4.458;2022-09-20T07:55:05;15.20;99.90
25112;DHT22;13092;51.996;4.458;2022-09-20T07:57:34;15.20;99.90
25112;DHT22;13092;51.996;4.458;2022-09-20T08:00:05;15.30;99.90
25112;DHT22;13092;51.996;4.458;2022-09-20T08:02:35;15.20;99.90
25112;DHT22;13092;51.996;4.458;2022-09-20T08:05:04;15.40;99.90
25112;DHT22;13092;51.996;4.458;2022-09-20T08:07:32;15.30;99.90
25112;DHT22;13092;51.996;4.458;2022-09-20T08:10:00;15.50;99.90
25112;DHT22;13092;51.996;4.458;2022-09-20T08:12:28;15.30;99.90
25112;DHT22;13092;51.996;4.458;2022-09-20T08:15:16;15.40;99.90
25112;DHT22;13092;51.996;4.458;2022-09-20T08:17:47;15.40;99.90
25112;DHT22;13092;51.996;4.458;2022-09-20T08:20:15;15.50;99.90
25112;DHT22;13092;51.996;4.458;2022-09-20T08:22:45;15.50;99.90
25112;DHT22;13092;51.996;4.458;2022-09-20T08:25:32;15.50;99.90
25112;DHT22;13092;51.996;4.458;2022-09-20T08:28:01;15.50;99.90
25112;DHT22;13092;51.996;4.458;2022-09-20T08:30:29;15.50;99.90
25112;DHT22;13092;51.996;4.458;2022-09-20T08:32:58;15.50;99.90
25112;DHT22;13092;51.996;4.458;2022-09-20T08:35:29;15.60;99.90
25112;DHT22;13092;51.996;4.458;2022-09-20T08:38:00;15.70;99.90
25112;DHT22;13092;51.996;4.458;2022-09-20T08:40:49;15.70;99.90
25112;DHT22;13092;51.996;4.458;2022-09-20T08:43:17;15.80;99.90
25112;DHT22;13092;51.996;4.458;2022-09-20T08:45:48;15.70;99.90
25112;DHT22;13092;51.996;4.458;2022-09-20T08:48:22;15.70;99.90
25112;DHT22;13092;51.996;4.458;2022-09-20T08:50:53;15.80;99.90
25112;DHT22;13092;51.996;4.458;2022-09-20T08:53:26;15.90;99.90
25112;DHT22;13092;51.996;4.458;2022-09-20T08:55:54;15.80;99.90
25112;DHT22;13092;51.996;4.458;2022-09-20T08:58:25;15.80;99.90
25112;DHT22;13092;51.996;4.458;2022-09-20T09:00:54;15.90;99.90
25112;DHT22;13092;51.996;4.458;2022-09-20T09:03:26;16.00;99.90
25112;DHT22;13092;51.996;4.458;2022-09-20T09:05:55;16.10;99.90
25112;DHT22;13092;51.996;4.458;2022-09-20T09:08:27;16.00;99.90
25112;DHT22;13092;51.996;4.458;2022-09-20T09:10:58;16.00;99.90
25112;DHT22;13092;51.996;4.458;2022-09-20T09:13:31;16.20;99.90
25112;DHT22;13092;51.996;4.458;2022-09-20T09:16:07;16.10;99.90
25112;DHT22;13092;51.996;4.458;2022-09-20T09:18:39;16.30;99.90
25112;DHT22;13092;51.996;4.458;2022-09-20T09:21:09;16.30;99.90
25112;DHT22;13092;51.996;4.458;2022-09-20T09:23:49;16.30;99.90
25112;DHT22;13092;51.996;4.458;2022-09-20T09:26:21;16.40;99.90
25112;DHT22;13092;51.996;4.458;2022-09-20T09:29:14;16.50;99.90
25112;DHT22;13092;51.996;4.458;2022-09-20T09:31:43;16.50;99.90
25112;DHT22;13092;51.996;4.458;2022-09-20T09:34:24;16.60;99.90
25112;DHT22;13092;51.996;4.458;2022-09-20T09:36:53;16.60;99.90
25112;DHT22;13092;51.996;4.458;2022-09-20T09:39:25;16.70;99.90
25112;DHT22;13092;51.996;4.458;2022-09-20T09:41:54;16.50;99.90
25112;DHT22;13092;51.996;4.458;2022-09-20T09:44:26;16.70;99.90
25112;DHT22;13092;51.996;4.458;2022-09-20T09:46:55;16.60;99.90
25112;DHT22;13092;51.996;4.458;2022-09-20T09:49:27;16.60;99.90
25112;DHT22;13092;51.996;4.458;2022-09-20T09:52:05;16.70;99.90
25112;DHT22;13092;51.996;4.458;2022-09-20T09:54:36;16.80;99.90
25112;DHT22;13092;51.996;4.458;2022-09-20T09:57:16;16.90;99.90
25112;DHT22;13092;51.996;4.458;2022-09-20T10:00:02;17.10;99.90
25112;DHT22;13092;51.996;4.458;2022-09-20T10:03:03;17.20;99.90
25112;DHT22;13092;51.996;4.458;2022-09-20T10:05:42;17.30;99.90
25112;DHT22;13092;51.996;4.458;2022-09-20T10:08:25;17.40;99.90
25112;DHT22;13092;51.996;4.458;2022-09-20T10:11:04;17.30;99.90
25112;DHT22;13092;51.996;4.458;2022-09-20T10:13:39;17.30;99.90
25112;DHT22;13092;51.996;4.458;2022-09-20T10:16:17;17.30;99.90
25112;DHT22;13092;51.996;4.458;2022-09-20T10:18:51;17.30;99.90
25112;DHT22;13092;51.996;4.458;2022-09-20T10:21:37;17.40;99.90
25112;DHT22;13092;51.996;4.458;2022-09-20T10:24:20;17.50;99.90
25112;DHT22;13092;51.996;4.458;2022-09-20T10:27:13;17.60;99.90
25112;DHT22;13092;51.996;4.458;2022-09-20T10:29:58;17.70;99.90
25112;DHT22;13092;51.996;4.458;2022-09-20T10:32:38;17.70;99.90
25112;DHT22;13092;51.996;4.458;2022-09-20T10:35:35;17.60;99.90
25112;DHT22;13092;51.996;4.458;2022-09-20T10:38:14;17.40;99.90
25112;DHT22;13092;51.996;4.458;2022-09-20T10:41:08;17.50;99.90
25112;DHT22;13092;51.996;4.458;2022-09-20T10:44:25;17.60;99.90
25112;DHT22;13092;51.996;4.458;2022-09-20T10:47:03;17.60;99.90
25112;DHT22;13092;51.996;4.458;2022-09-20T10:49:35;17.70;99.90
25112;DHT22;13092;51.996;4.458;2022-09-20T10:52:29;17.80;99.90
25112;DHT22;13092;51.996;4.458;2022-09-20T10:55:17;17.90;99.90
25112;DHT22;13092;51.996;4.458;2022-09-20T10:58:02;17.90;99.90
25112;DHT22;13092;51.996;4.458;2022-09-20T11:00:41;17.90;99.90
25112;DHT22;13092;51.996;4.458;2022-09-20T11:03:22;17.90;99.90
25112;DHT22;13092;51.996;4.458;2022-09-20T11:06:09;17.90;99.90
25112;DHT22;13092;51.996;4.458;2022-09-20T11:08:42;18.00;99.90
25112;DHT22;13092;51.996;4.458;2022-09-20T11:11:18;18.10;99.90
25112;DHT22;13092;51.996;4.458;2022-09-20T11:13:55;18.20;99.90
25112;DHT22;13092;51.996;4.458;2022-09-20T11:16:27;18.20;99.90
25112;DHT22;13092;51.996;4.458;2022-09-20T11:19:04;18.30;99.90
25112;DHT22;13092;51.996;4.458;2022-09-20T11:21:38;18.30;99.90
25112;DHT22;13092;51.996;4.458;2022-09-20T11:24:26;18.30;99.90
25112;DHT22;13092;51.996;4.458;2022-09-20T11:26:58;18.40;99.90
25112;DHT22;13092;51.996;4.458;2022-09-20T11:29:33;18.50;99.90
25112;DHT22;13092;51.996;4.458;2022-09-20T11:32:07;18.60;99.90
25112;DHT22;13092;51.996;4.458;2022-09-20T11:34:46;18.50;99.90
25112;DHT22;13092;51.996;4.458;2022-09-20T11:37:17;18.50;99.90
25112;DHT22;13092;51.996;4.458;2022-09-20T11:39:49;18.50;99.90
25112;DHT22;13092;51.996;4.458;2022-09-20T11:42:21;18.40;99.90
25112;DHT22;13092;51.996;4.458;2022-09-20T11:44:53;18.40;99.90
25112;DHT22;13092;51.996;4.458;2022-09-20T11:47:23;18.50;99.90
25112;DHT22;13092;51.996;4.458;2022-09-20T11:50:43;18.50;99.90
25112;DHT22;13092;51.996;4.458;2022-09-20T11:53:26;18.50;99.90
25112;DHT22;13092;51.996;4.458;2022-09-20T11:56:04;18.60;99.90
25112;DHT22;13092;51.996;4.458;2022-09-20T11:58:45;18.60;99.90
25112;DHT22;13092;51.996;4.458;2022-09-20T12:01:15;18.70;99.90
25112;DHT22;13092;51.996;4.458;2022-09-20T12:03:49;18.70;99.90
25112;DHT22;13092;51.996;4.458;2022-09-20T12:06:36;18.70;99.90
25112;DHT22;13092;51.996;4.458;2022-09-20T12:09:21;18.90;99.90
25112;DHT22;13092;51.996;4.458;2022-09-20T12:11:50;19.00;99.90
25112;DHT22;13092;51.996;4.458;2022-09-20T12:14:23;19.20;99.90
25112;DHT22;13092;51.996;4.458;2022-09-20T12:16:52;19.00;99.90
25112;DHT22;13092;51.996;4.458;2022-09-20T12:19:38;18.80;99.90
25112;DHT22;13092;51.996;4.458;2022-09-20T12:22:25;18.80;99.90
25112;DHT22;13092;51.996;4.458;2022-09-20T12:28:00;18.60;99.90
25112;DHT22;13092;51.996;4.458;2022-09-20T12:30:29;18.70;99.90
25112;DHT22;13092;51.996;4.458;2022-09-20T12:32:59;18.80;99.90
25112;DHT22;13092;51.996;4.458;2022-09-20T12:35:59;18.90;99.90
25112;DHT22;13092;51.996;4.458;2022-09-20T12:38:56;18.90;99.90
25112;DHT22;13092;51.996;4.458;2022-09-20T12:41:26;18.60;99.90
25112;DHT22;13092;51.996;4.458;2022-09-20T12:44:01;18.40;99.90
25112;DHT22;13092;51.996;4.458;2022-09-20T12:46:35;18.30;99.90
25112;DHT22;13092;51.996;4.458;2022-09-20T12:49:41;18.30;99.90
25112;DHT22;13092;51.996;4.458;2022-09-20T12:52:34;18.30;99.90
25112;DHT22;13092;51.996;4.458;2022-09-20T12:55:33;18.20;99.90
25112;DHT22;13092;51.996;4.458;2022-09-20T12:58:20;18.10;99.90
25112;DHT22;13092;51.996;4.458;2022-09-20T13:03:42;18.20;99.90
25112;DHT22;13092;51.996;4.458;2022-09-20T13:06:23;17.90;99.90
25112;DHT22;13092;51.996;4.458;2022-09-20T13:09:03;18.00;99.90
25112;DHT22;13092;51.996;4.458;2022-09-20T13:11:37;18.00;99.90
25112;DHT22;13092;51.996;4.458;2022-09-20T13:14:10;18.00;99.90
25112;DHT22;13092;51.996;4.458;2022-09-20T13:16:53;18.00;99.90
25112;DHT22;13092;51.996;4.458;2022-09-20T13:19:26;18.20;99.90
25112;DHT22;13092;51.996;4.458;2022-09-20T13:22:00;18.20;99.90
25112;DHT22;13092;51.996;4.458;2022-09-20T13:24:32;18.20;99.90
25112;DHT22;13092;51.996;4.458;2022-09-20T13:27:06;18.20;99.90
25112;DHT22;13092;51.996;4.458;2022-09-20T13:29:38;18.40;99.90
25112;DHT22;13092;51.996;4.458;2022-09-20T13:32:16;18.50;99.90
25112;DHT22;13092;51.996;4.458;2022-09-20T13:35:03;18.60;99.90
25112;DHT22;13092;51.996;4.458;2022-09-20T13:37:32;18.70;99.90
25112;DHT22;13092;51.996;4.458;2022-09-20T13:40:01;18.70;99.90
25112;DHT22;13092;51.996;4.458;2022-09-20T13:42:31;18.80;99.90
25112;DHT22;13092;51.996;4.458;2022-09-20T13:45:02;18.60;99.90
25112;DHT22;13092;51.996;4.458;2022-09-20T13:47:31;18.50;99.90
25112;DHT22;13092;51.996;4.458;2022-09-20T13:50:09;18.40;99.90
25112;DHT22;13092;51.996;4.458;2022-09-20T13:52:44;18.40;99.90
25112;DHT22;13092;51.996;4.458;2022-09-20T13:55:24;18.50;99.90
25112;DHT22;13092;51.996;4.458;2022-09-20T13:57:56;18.60;99.90
25112;DHT22;13092;51.996;4.458;2022-09-20T14:00:25;18.50;99.90
25112;DHT22;13092;51.996;4.458;2022-09-20T14:02:55;18.50;99.90
25112;DHT22;13092;51.996;4.458;2022-09-20T14:05:27;18.60;99.90
25112;DHT22;13092;51.996;4.458;2022-09-20T14:07:58;18.60;99.90
25112;DHT22;13092;51.996;4.458;2022-09-20T14:10:30;18.60;99.90
25112;DHT22;13092;51.996;4.458;2022-09-20T14:12:59;18.60;99.90
25112;DHT22;13092;51.996;4.458;2022-09-20T14:15:31;18.60;99.90
25112;DHT22;13092;51.996;4.458;2022-09-20T14:18:01;18.60;99.90
25112;DHT22;13092;51.996;4.458;2022-09-20T14:20:33;18.70;99.90
25112;DHT22;13092;51.996;4.458;2022-09-20T14:23:02;18.40;99.90
25112;DHT22;13092;51.996;4.458;2022-09-20T14:25:30;18.30;99.90
25112;DHT22;13092;51.996;4.458;2022-09-20T14:28:12;18.20;99.90
25112;DHT22;13092;51.996;4.458;2022-09-20T14:30:44;18.20;99.90
25112;DHT22;13092;51.996;4.458;2022-09-20T14:33:15;18.20;99.90
25112;DHT22;13092;51.996;4.458;2022-09-20T14:35:47;18.10;99.90
25112;DHT22;13092;51.996;4.458;2022-09-20T14:38:17;18.40;99.90
25112;DHT22;13092;51.996;4.458;2022-09-20T14:40:50;18.30;99.90
25112;DHT22;13092;51.996;4.458;2022-09-20T14:43:24;18.40;99.90
25112;DHT22;13092;51.996;4.458;2022-09-20T14:45:54;18.40;99.90
25112;DHT22;13092;51.996;4.458;2022-09-20T14:48:35;18.30;99.90
25112;DHT22;13092;51.996;4.458;2022-09-20T14:51:22;18.30;99.90
25112;DHT22;13092;51.996;4.458;2022-09-20T14:53:52;18.30;99.90
25112;DHT22;13092;51.996;4.458;2022-09-20T14:56:32;18.50;99.90
25112;DHT22;13092;51.996;4.458;2022-09-20T14:59:17;18.30;99.90
25112;DHT22;13092;51.996;4.458;2022-09-20T15:01:56;18.40;99.90
25112;DHT22;13092;51.996;4.458;2022-09-20T15:04:26;18.50;99.90
25112;DHT22;13092;51.996;4.458;2022-09-20T15:06:59;18.50;99.90
25112;DHT22;13092;51.996;4.458;2022-09-20T15:09:28;18.60;99.90
25112;DHT22;13092;51.996;4.458;2022-09-20T15:12:04;18.60;99.90
25112;DHT22;13092;51.996;4.458;2022-09-20T15:14:32;18.60;99.90
25112;DHT22;13092;51.996;4.458;2022-09-20T15:17:04;18.50;99.90
25112;DHT22;13092;51.996;4.458;2022-09-20T15:19:33;18.60;99.90
25112;DHT22;13092;51.996;4.458;2022-09-20T15:22:02;18.60;99.90
25112;DHT22;13092;51.996;4.458;2022-09-20T15:24:30;18.60;99.90
25112;DHT22;13092;51.996;4.458;2022-09-20T15:26:58;18.60;99.90
25112;DHT22;13092;51.996;4.458;2022-09-20T15:29:27;18.50;99.90
25112;DHT22;13092;51.996;4.458;2022-09-20T15:31:55;18.40;99.90
25112;DHT22;13092;51.996;4.458;2022-09-20T15:34:25;18.50;99.90
25112;DHT22;13092;51.996;4.458;2022-09-20T15:36:53;18.60;99.90
25112;DHT22;13092;51.996;4.458;2022-09-20T15:39:22;18.30;99.90
25112;DHT22;13092;51.996;4.458;2022-09-20T15:41:51;18.40;99.90
25112;DHT22;13092;51.996;4.458;2022-09-20T15:44:19;18.30;99.90
25112;DHT22;13092;51.996;4.458;2022-09-20T15:46:49;18.30;99.90
25112;DHT22;13092;51.996;4.458;2022-09-20T15:49:25;18.30;99.90
25112;DHT22;13092;51.996;4.458;2022-09-20T15:52:14;18.50;99.90
25112;DHT22;13092;51.996;4.458;2022-09-20T15:54:54;18.70;99.90
25112;DHT22;13092;51.996;4.458;2022-09-20T15:57:27;18.90;99.90
25112;DHT22;13092;51.996;4.458;2022-09-20T15:59:55;18.90;99.90
25112;DHT22;13092;51.996;4.458;2022-09-20T16:02:25;18.90;99.90
25112;DHT22;13092;51.996;4.458;2022-09-20T16:04:53;19.20;99.90
25112;DHT22;13092;51.996;4.458;2022-09-20T16:07:24;19.30;99.90
25112;DHT22;13092;51.996;4.458;2022-09-20T16:09:55;19.30;99.90
25112;DHT22;13092;51.996;4.458;2022-09-20T16:12:24;19.20;99.90
25112;DHT22;13092;51.996;4.458;2022-09-20T16:14:52;19.20;99.90
25112;DHT22;13092;51.996;4.458;2022-09-20T16:17:20;19.10;99.90
25112;DHT22;13092;51.996;4.458;2022-09-20T16:20:09;19.00;99.90
25112;DHT22;13092;51.996;4.458;2022-09-20T16:22:36;19.00;99.90
25112;DHT22;13092;51.996;4.458;2022-09-20T16:25:07;18.80;99.90
25112;DHT22;13092;51.996;4.458;2022-09-20T16:27:35;18.60;99.90
25112;DHT22;13092;51.996;4.458;2022-09-20T16:30:04;18.60;99.90
25112;DHT22;13092;51.996;4.458;2022-09-20T16:32:35;18.60;99.90
25112;DHT22;13092;51.996;4.458;2022-09-20T16:35:04;18.70;99.90
25112;DHT22;13092;51.996;4.458;2022-09-20T16:37:33;18.70;99.90
25112;DHT22;13092;51.996;4.458;2022-09-20T16:40:08;18.70;99.90
25112;DHT22;13092;51.996;4.458;2022-09-20T16:42:39;18.80;99.90
25112;DHT22;13092;51.996;4.458;2022-09-20T16:45:08;18.80;99.90
25112;DHT22;13092;51.996;4.458;2022-09-20T16:47:38;18.70;99.90
25112;DHT22;13092;51.996;4.458;2022-09-20T16:50:07;18.60;99.90
25112;DHT22;13092;51.996;4.458;2022-09-20T16:52:36;18.30;99.90
25112;DHT22;13092;51.996;4.458;2022-09-20T16:55:08;18.10;99.90
25112;DHT22;13092;51.996;4.458;2022-09-20T16:57:36;18.00;99.90
25112;DHT22;13092;51.996;4.458;2022-09-20T17:00:05;17.70;99.90
25112;DHT22;13092;51.996;4.458;2022-09-20T17:02:33;17.80;99.90